Time;durP1;ratioP1;P1;durP2;ratioP2;P2;SDS_P1;SDS_P2;PMS_P1;PMS_P2;Temp;Humidity;BMP_temperature;BMP_pressure;BME280_temperature;BME280_humidity;BME280_pressure;Samples;Min_cycle;Max_cycle;Signal;HPM_P1;HPM_P2
2022/11/17 00:00:25;;;;;;;8.50;5.00;;;11.60;99.90;;;;;;5110600;28;20066;-63
2022/11/17 00:02:51;;;;;;;6.28;4.18;;;11.60;99.90;;;;;;5117298;28;20032;-63
2022/11/17 00:05:17;;;;;;;7.72;4.65;;;11.60;99.90;;;;;;5116776;28;20023;-63
2022/11/17 00:07:44;;;;;;;7.50;4.20;;;11.70;99.90;;;;;;5116661;28;20031;-63
2022/11/17 00:10:11;;;;;;;8.88;4.72;;;11.60;99.90;;;;;;5116613;28;20430;-63
2022/11/17 00:15:22;;;;;;;8.82;4.75;;;11.50;99.90;;;;;;5116592;28;20038;-63
2022/11/17 00:21:17;;;;;;;12.35;4.95;;;11.40;99.90;;;;;;5116485;28;20028;-63
2022/11/17 00:23:22;;;;;;;9.63;4.30;;;11.40;99.90;;;;;;5116414;28;20032;-62
2022/11/17 00:25:48;;;;;;;8.43;4.32;;;11.30;99.90;;;;;;5116461;28;20498;-63
2022/11/17 00:28:14;;;;;;;8.93;4.53;;;11.30;99.90;;;;;;5116230;28;20105;-63
2022/11/17 00:36:09;;;;;;;8.50;4.03;;;11.20;99.90;;;;;;5097356;28;20034;-63
2022/11/17 00:38:34;;;;;;;10.73;4.32;;;11.20;99.90;;;;;;5116032;28;20024;-63
2022/11/17 00:41:00;;;;;;;11.98;5.13;;;11.20;99.90;;;;;;5115870;28;20027;-64
2022/11/17 00:43:26;;;;;;;8.35;5.22;;;11.10;99.90;;;;;;5116143;28;20016;-63
2022/11/17 00:45:52;;;;;;;9.98;5.20;;;11.20;99.90;;;;;;5116016;28;20034;-63
2022/11/17 00:48:18;;;;;;;10.85;5.25;;;11.20;99.90;;;;;;5115827;28;20035;-63
2022/11/17 00:50:44;;;;;;;11.55;5.72;;;11.20;99.90;;;;;;5115906;28;20027;-63
2022/11/17 00:53:09;;;;;;;11.48;5.70;;;11.20;99.90;;;;;;5115800;28;20423;-63
2022/11/17 00:55:35;;;;;;;10.85;5.97;;;11.10;99.90;;;;;;5115780;28;20438;-63
2022/11/17 00:58:01;;;;;;;12.70;5.70;;;11.20;99.90;;;;;;5115633;28;20057;-63
2022/11/17 01:00:27;;;;;;;9.88;5.00;;;11.10;99.90;;;;;;5115587;28;20054;-63
2022/11/17 01:02:53;;;;;;;11.35;5.75;;;11.10;99.90;;;;;;5115604;28;20051;-63
2022/11/17 01:05:19;;;;;;;10.00;5.13;;;11.10;99.90;;;;;;5115633;28;20034;-63
2022/11/17 01:07:45;;;;;;;8.13;3.80;;;11.10;99.90;;;;;;5115637;28;20028;-63
2022/11/17 01:10:12;;;;;;;7.55;4.43;;;11.10;99.90;;;;;;5102270;28;20028;-63
2022/11/17 01:12:38;;;;;;;6.20;4.20;;;11.10;99.90;;;;;;5095222;28;20113;-64
2022/11/17 01:15:05;;;;;;;10.43;4.30;;;11.10;99.90;;;;;;5095092;28;20035;-63
2022/11/17 01:17:30;;;;;;;8.20;4.15;;;11.10;99.90;;;;;;5094763;28;20032;-63
2022/11/17 01:19:56;;;;;;;10.07;4.38;;;11.10;99.90;;;;;;5094681;28;20080;-63
2022/11/17 01:22:22;;;;;;;8.50;4.35;;;11.10;99.90;;;;;;5095006;28;20020;-63
2022/11/17 01:24:48;;;;;;;8.45;4.18;;;11.10;99.90;;;;;;5094782;28;20020;-63
2022/11/17 01:27:14;;;;;;;7.55;4.20;;;11.10;99.90;;;;;;5094833;28;20064;-63
2022/11/17 01:29:40;;;;;;;5.38;3.70;;;11.10;99.90;;;;;;5094728;28;20035;-64
2022/11/17 01:32:06;;;;;;;6.68;3.58;;;11.10;99.90;;;;;;5095068;28;20496;-63
2022/11/17 01:34:32;;;;;;;7.85;3.53;;;11.10;99.90;;;;;;5094783;28;20466;-63
2022/11/17 01:39:42;;;;;;;7.20;3.53;;;11.00;99.90;;;;;;5094593;28;20039;-64
2022/11/17 01:42:23;;;;;;;12.63;3.35;;;11.10;99.90;;;;;;5094628;28;20075;-63
2022/11/17 01:44:59;;;;;;;7.78;3.15;;;11.10;99.90;;;;;;5094444;28;20032;-64
2022/11/17 01:47:34;;;;;;;4.97;3.30;;;11.10;99.90;;;;;;5094188;28;20470;-63
2022/11/17 01:50:14;;;;;;;5.88;3.50;;;11.10;99.90;;;;;;5094445;28;20115;-64
2022/11/17 01:52:41;;;;;;;5.07;2.80;;;11.00;99.90;;;;;;5094470;28;20020;-64
2022/11/17 01:55:09;;;;;;;6.13;3.35;;;11.10;99.90;;;;;;5094604;28;20107;-64
2022/11/17 01:57:43;;;;;;;7.85;3.80;;;11.10;99.90;;;;;;5076397;28;20027;-64
2022/11/17 02:00:11;;;;;;;6.63;3.42;;;11.00;99.90;;;;;;5106240;28;20040;-64
2022/11/17 02:02:38;;;;;;;9.60;3.80;;;11.00;99.90;;;;;;5114861;28;20370;-64
2022/11/17 02:05:35;;;;;;;6.90;4.18;;;11.00;99.90;;;;;;5114727;28;20077;-64
2022/11/17 02:08:04;;;;;;;11.55;5.93;;;11.00;99.90;;;;;;5109765;28;20066;-64
2022/11/17 02:10:31;;;;;;;9.15;6.03;;;11.20;99.90;;;;;;5114440;28;20044;-63
2022/11/17 02:12:59;;;;;;;9.32;6.20;;;11.20;99.90;;;;;;5096455;28;20465;-64
2022/11/17 02:15:27;;;;;;;9.38;6.00;;;11.10;99.90;;;;;;5114818;28;20034;-64
2022/11/17 02:17:53;;;;;;;10.95;6.00;;;11.10;99.90;;;;;;5114469;28;20030;-63
2022/11/17 02:21:02;;;;;;;13.15;6.22;;;11.10;99.90;;;;;;5096324;28;20400;-64
2022/11/17 02:23:45;;;;;;;8.23;5.82;;;11.00;99.90;;;;;;5041356;28;20046;-64
2022/11/17 02:26:35;;;;;;;11.55;7.28;;;11.00;99.90;;;;;;5114572;28;20498;-64
2022/11/17 02:29:18;;;;;;;10.23;6.37;;;11.00;99.90;;;;;;5114539;28;20020;-64
2022/11/17 02:32:03;;;;;;;10.00;5.18;;;11.00;99.90;;;;;;5114523;28;20256;-64
2022/11/17 02:35:07;;;;;;;8.93;5.95;;;11.00;99.90;;;;;;5114442;28;20088;-64
2022/11/17 02:37:37;;;;;;;9.45;5.78;;;10.90;99.90;;;;;;5031322;28;20483;-64
2022/11/17 02:40:09;;;;;;;9.05;5.65;;;10.90;99.90;;;;;;5031578;28;20064;-64
2022/11/17 02:45:35;;;;;;;8.23;4.82;;;10.90;99.90;;;;;;5031650;28;20328;-64
2022/11/17 02:48:06;;;;;;;7.82;5.00;;;10.90;99.90;;;;;;5031330;28;20069;-64
2022/11/17 02:50:33;;;;;;;6.28;4.85;;;10.80;99.90;;;;;;5031485;28;20419;-64
2022/11/17 02:52:59;;;;;;;8.23;5.30;;;10.80;99.90;;;;;;5031442;28;20145;-64
2022/11/17 02:55:26;;;;;;;7.50;4.60;;;10.70;99.90;;;;;;5031381;28;20420;-64
2022/11/17 02:57:52;;;;;;;6.95;5.88;;;10.70;99.90;;;;;;5032273;28;20056;-64
2022/11/17 03:00:19;;;;;;;7.57;5.20;;;10.70;99.90;;;;;;5048017;28;20041;-64
2022/11/17 03:03:06;;;;;;;8.93;5.70;;;10.60;99.90;;;;;;5054824;28;20029;-64
2022/11/17 03:05:37;;;;;;;7.05;5.43;;;10.60;99.90;;;;;;5054706;28;20614;-63
2022/11/17 03:08:40;;;;;;;7.40;5.13;;;10.50;99.90;;;;;;5054814;28;20053;-64
2022/11/17 03:11:07;;;;;;;7.88;5.22;;;10.50;99.90;;;;;;5062275;28;20040;-64
2022/11/17 03:13:48;;;;;;;6.90;4.72;;;10.40;99.90;;;;;;5077082;28;20076;-64
2022/11/17 03:16:16;;;;;;;11.18;5.25;;;10.30;99.90;;;;;;5077068;28;20088;-63
2022/11/17 03:19:07;;;;;;;7.63;4.78;;;10.30;99.90;;;;;;5076809;28;20541;-64
2022/11/17 03:21:41;;;;;;;10.27;5.43;;;10.30;99.90;;;;;;5076908;28;20032;-64
2022/11/17 03:24:22;;;;;;;9.00;5.40;;;10.30;99.90;;;;;;5076926;28;20056;-64
2022/11/17 03:26:54;;;;;;;6.53;4.93;;;10.40;99.90;;;;;;5076675;28;20466;-64
2022/11/17 03:29:24;;;;;;;7.35;4.95;;;10.30;99.90;;;;;;5076667;28;20116;-64
2022/11/17 03:31:56;;;;;;;6.68;4.65;;;10.30;99.90;;;;;;5076661;28;20060;-64
2022/11/17 03:34:25;;;;;;;7.70;4.93;;;10.30;99.90;;;;;;5058890;28;20111;-64
2022/11/17 03:36:54;;;;;;;8.98;5.65;;;10.40;99.90;;;;;;5076632;28;20021;-64
2022/11/17 03:39:33;;;;;;;7.60;5.32;;;10.40;99.90;;;;;;5076524;28;20036;-63
2022/11/17 03:42:07;;;;;;;9.35;5.75;;;10.40;99.90;;;;;;5076527;28;20076;-64
2022/11/17 03:44:38;;;;;;;13.07;4.88;;;10.30;99.90;;;;;;5076553;28;20135;-64
2022/11/17 03:47:06;;;;;;;7.22;4.88;;;10.30;99.90;;;;;;5076460;28;20100;-64
2022/11/17 03:49:38;;;;;;;6.32;4.65;;;10.30;99.90;;;;;;5076286;28;20402;-64
2022/11/17 03:52:04;;;;;;;7.00;4.70;;;10.30;99.90;;;;;;5058395;28;20029;-64
2022/11/17 03:54:30;;;;;;;7.15;5.13;;;10.30;99.90;;;;;;5076213;28;20025;-64
2022/11/17 03:57:28;;;;;;;8.05;5.22;;;10.30;99.90;;;;;;5076137;28;20039;-64
2022/11/17 04:00:09;;;;;;;8.85;5.15;;;10.20;99.90;;;;;;5074440;28;20394;-64
2022/11/17 04:02:47;;;;;;;8.88;6.13;;;10.10;99.90;;;;;;5075970;28;20052;-64
2022/11/17 04:05:16;;;;;;;8.00;5.35;;;10.00;99.90;;;;;;5075942;28;20032;-64
2022/11/17 04:07:46;;;;;;;7.68;5.47;;;10.10;99.90;;;;;;5076010;28;20031;-64
2022/11/17 04:10:18;;;;;;;9.20;5.37;;;10.10;99.90;;;;;;5102192;28;20023;-64
2022/11/17 04:18:13;;;;;;;8.85;5.78;;;9.90;99.90;;;;;;5116419;28;20122;-64
2022/11/17 04:20:40;;;;;;;8.00;5.65;;;9.90;99.90;;;;;;5116419;28;20037;-64
2022/11/17 04:23:12;;;;;;;7.75;5.53;;;9.90;99.90;;;;;;5116329;28;20020;-64
2022/11/17 04:28:49;;;;;;;27.80;16.33;;;9.80;99.90;;;;;;5116093;28;20450;-64
2022/11/17 04:31:22;;;;;;;24.40;13.95;;;9.80;99.90;;;;;;5116160;28;20031;-64
2022/11/17 04:33:51;;;;;;;14.07;8.95;;;9.80;99.90;;;;;;5097876;28;20129;-64
2022/11/17 04:36:19;;;;;;;18.70;10.02;;;9.90;99.90;;;;;;5097759;28;20027;-64
2022/11/17 04:38:48;;;;;;;17.58;10.23;;;9.90;99.90;;;;;;5116012;28;20107;-64
2022/11/17 04:44:01;;;;;;;13.15;8.55;;;9.80;99.90;;;;;;5115853;28;20453;-64
2022/11/17 04:46:29;;;;;;;16.08;8.75;;;9.80;99.90;;;;;;5116008;28;20027;-64
2022/11/17 04:48:56;;;;;;;18.58;9.20;;;9.80;99.90;;;;;;5115653;28;20023;-64
2022/11/17 04:51:23;;;;;;;10.32;6.72;;;9.80;99.90;;;;;;5115839;28;20034;-64
2022/11/17 04:53:50;;;;;;;10.82;6.65;;;9.80;99.90;;;;;;5115844;28;20491;-64
2022/11/17 04:56:17;;;;;;;11.23;7.22;;;9.80;99.90;;;;;;5115601;28;20046;-63
2022/11/17 04:58:42;;;;;;;10.75;6.53;;;9.80;99.90;;;;;;5115582;28;20389;-64
2022/11/17 05:01:11;;;;;;;9.52;6.65;;;9.70;99.90;;;;;;5136194;27;20032;-64
2022/11/17 05:03:51;;;;;;;10.00;6.22;;;9.80;99.90;;;;;;5136011;27;20386;-64
2022/11/17 05:06:23;;;;;;;9.10;6.07;;;9.80;99.90;;;;;;5136125;27;20019;-64
2022/11/17 05:08:49;;;;;;;10.70;6.22;;;9.90;99.90;;;;;;5134481;27;20476;-64
2022/11/17 05:14:02;;;;;;;11.35;6.38;;;9.90;99.90;;;;;;5115329;28;20028;-64
2022/11/17 05:19:16;;;;;;;11.52;7.28;;;9.90;99.90;;;;;;5096788;28;20477;-64
2022/11/17 05:21:42;;;;;;;20.45;10.23;;;9.90;99.90;;;;;;5114685;28;20024;-64
2022/11/17 05:24:08;;;;;;;15.27;10.05;;;9.90;99.90;;;;;;5115066;28;20119;-64
2022/11/17 05:26:35;;;;;;;17.80;11.35;;;9.90;99.90;;;;;;5115151;28;20100;-64
2022/11/17 05:29:04;;;;;;;19.75;11.40;;;10.00;99.90;;;;;;5115047;28;20099;-64
2022/11/17 05:31:31;;;;;;;19.17;11.65;;;10.00;99.90;;;;;;5115175;28;20039;-64
2022/11/17 05:33:57;;;;;;;26.67;14.50;;;10.00;99.90;;;;;;5096996;28;20099;-64
2022/11/17 05:36:24;;;;;;;17.13;11.20;;;10.00;99.90;;;;;;5115095;28;20126;-64
2022/11/17 05:38:51;;;;;;;13.80;9.60;;;9.90;99.90;;;;;;5096436;28;20028;-64
2022/11/17 05:41:18;;;;;;;13.18;8.30;;;10.00;99.90;;;;;;5114837;28;20020;-64
2022/11/17 05:43:44;;;;;;;11.45;8.07;;;10.10;99.90;;;;;;5114972;28;20028;-64
2022/11/17 05:46:11;;;;;;;13.50;8.52;;;10.10;99.90;;;;;;5114794;28;20597;-64
2022/11/17 05:48:38;;;;;;;16.42;11.43;;;10.00;99.90;;;;;;5114680;28;20084;-64
2022/11/17 05:51:04;;;;;;;21.42;12.82;;;9.90;99.90;;;;;;5114871;28;20028;-64
2022/11/17 05:53:31;;;;;;;26.42;17.42;;;9.90;99.90;;;;;;5114639;28;20107;-64
2022/11/17 05:56:30;;;;;;;17.88;12.88;;;9.90;99.90;;;;;;5114652;28;20436;-64
2022/11/17 05:59:21;;;;;;;17.02;10.98;;;9.90;99.90;;;;;;5112590;28;20076;-64
2022/11/17 06:02:22;;;;;;;19.67;12.65;;;9.90;99.90;;;;;;5094508;28;20032;-64
2022/11/17 06:04:50;;;;;;;29.50;19.00;;;9.90;99.90;;;;;;5089999;28;20123;-64
2022/11/17 06:07:16;;;;;;;27.60;16.58;;;9.90;99.90;;;;;;5094343;28;20118;-64
2022/11/17 06:09:43;;;;;;;22.25;14.77;;;9.90;99.90;;;;;;5094260;28;20400;-64
2022/11/17 06:12:10;;;;;;;28.42;17.48;;;10.00;99.90;;;;;;5114241;28;20039;-64
2022/11/17 06:14:38;;;;;;;38.53;22.38;;;10.10;99.90;;;;;;5114554;28;20062;-64
2022/11/17 06:17:16;;;;;;;50.80;28.83;;;10.10;99.90;;;;;;5114557;28;20380;-64
2022/11/17 06:19:47;;;;;;;73.30;40.33;;;10.10;99.90;;;;;;5114576;28;20023;-64
2022/11/17 06:22:13;;;;;;;;;;;10.20;99.90;;;;;;5114649;28;20035;-64
2022/11/17 06:24:41;;;;;;;61.15;37.80;;;10.20;99.90;;;;;;5114424;28;19908;-64
2022/11/17 06:27:08;;;;;;;56.05;30.95;;;10.10;99.90;;;;;;5111956;28;20095;-64
2022/11/17 06:29:34;;;;;;;81.40;49.63;;;10.20;99.90;;;;;;5104561;28;20473;-64
2022/11/17 06:32:00;;;;;;;156.75;87.28;;;10.30;99.90;;;;;;5114322;28;20032;-64
2022/11/17 06:34:27;;;;;;;166.70;96.95;;;10.30;99.90;;;;;;5118011;28;20037;-64
2022/11/17 06:36:53;;;;;;;194.85;110.10;;;10.30;99.90;;;;;;5118020;28;20065;-64
2022/11/17 06:39:18;;;;;;;173.55;101.10;;;10.20;99.90;;;;;;5101521;28;20024;-64
2022/11/17 06:41:44;;;;;;;194.35;111.65;;;10.30;99.90;;;;;;5111059;28;20024;-65
2022/11/17 06:44:10;;;;;;;147.32;89.35;;;10.30;99.90;;;;;;5111989;28;20462;-64
2022/11/17 06:46:39;;;;;;;139.18;85.60;;;10.30;99.90;;;;;;5108778;28;20535;-64
2022/11/17 06:49:06;;;;;;;121.72;71.82;;;10.40;99.90;;;;;;5112032;28;20122;-64
2022/11/17 06:51:33;;;;;;;115.07;70.25;;;10.40;99.90;;;;;;5098215;28;20028;-64
2022/11/17 06:53:59;;;;;;;112.65;62.15;;;10.40;99.90;;;;;;5108607;28;20043;-64
2022/11/17 06:56:26;;;;;;;116.72;70.50;;;10.40;99.90;;;;;;5118102;28;20023;-64
2022/11/17 06:58:53;;;;;;;112.95;66.53;;;10.50;99.90;;;;;;5117655;28;20078;-65
2022/11/17 07:01:19;;;;;;;104.30;60.53;;;10.70;99.90;;;;;;5117765;28;20465;-64
2022/11/17 07:03:45;;;;;;;111.55;63.50;;;10.70;99.90;;;;;;5117836;28;20055;-64
2022/11/17 07:06:11;;;;;;;113.38;64.82;;;10.80;99.90;;;;;;5117577;28;20023;-64
2022/11/17 07:08:37;;;;;;;113.97;65.45;;;10.80;99.90;;;;;;5117592;28;20036;-64
2022/11/17 07:11:12;;;;;;;124.18;68.82;;;10.90;99.90;;;;;;5117532;28;20023;-64
2022/11/17 07:13:38;;;;;;;126.45;70.38;;;10.90;99.90;;;;;;5117429;28;20041;-65
2022/11/17 07:16:13;;;;;;;143.07;80.47;;;10.90;99.90;;;;;;5112413;28;20029;-65
2022/11/17 07:18:40;;;;;;;160.75;86.63;;;11.00;99.90;;;;;;5097073;28;20066;-64
2022/11/17 07:21:09;;;;;;;116.00;69.47;;;11.00;99.90;;;;;;5096851;28;20048;-65
2022/11/17 07:23:36;;;;;;;124.07;70.30;;;11.10;99.90;;;;;;5096969;28;20054;-65
2022/11/17 07:26:02;;;;;;;140.05;81.38;;;11.20;99.90;;;;;;5097169;28;20020;-65
2022/11/17 07:28:29;;;;;;;109.22;65.80;;;11.40;99.90;;;;;;5097625;28;20474;-65
2022/11/17 07:30:55;;;;;;;117.30;68.05;;;11.50;99.90;;;;;;5079157;28;20118;-65
2022/11/17 07:33:22;;;;;;;101.97;57.40;;;11.60;99.90;;;;;;5096656;28;20056;-65
2022/11/17 07:35:48;;;;;;;98.57;54.78;;;11.50;99.90;;;;;;5099255;28;20439;-65
2022/11/17 07:38:14;;;;;;;92.00;52.92;;;11.60;99.90;;;;;;5111668;28;20032;-65
2022/11/17 07:40:39;;;;;;;89.30;51.83;;;11.70;99.90;;;;;;5116914;28;20094;-65
2022/11/17 07:43:06;;;;;;;71.65;41.78;;;11.90;99.90;;;;;;5116686;28;20096;-65
2022/11/17 07:45:35;;;;;;;62.97;35.70;;;11.80;99.90;;;;;;5116625;28;20543;-65
2022/11/17 07:48:02;;;;;;;51.47;32.10;;;11.80;99.90;;;;;;5116791;28;20039;-65
2022/11/17 07:50:29;;;;;;;57.63;35.92;;;11.80;99.90;;;;;;5113568;28;20460;-65
2022/11/17 07:53:05;;;;;;;59.90;37.00;;;11.90;99.90;;;;;;5111039;27;20028;-65
2022/11/17 07:55:33;;;;;;;59.42;38.78;;;12.10;99.90;;;;;;5109189;28;20031;-65
2022/11/17 07:58:00;;;;;;;64.30;38.90;;;12.20;99.90;;;;;;5103252;28;20384;-65
2022/11/17 08:00:28;;;;;;;59.45;38.10;;;12.20;99.90;;;;;;5111856;28;20067;-65
2022/11/17 08:02:54;;;;;;;59.45;37.95;;;12.40;99.90;;;;;;5116210;28;20016;-65
2022/11/17 08:05:20;;;;;;;68.25;39.13;;;12.30;99.90;;;;;;5111433;28;20032;-65
2022/11/17 08:07:54;;;;;;;57.88;35.30;;;12.30;99.90;;;;;;5104301;28;20028;-65
2022/11/17 08:10:21;;;;;;;62.45;37.42;;;12.30;99.90;;;;;;5104046;28;20016;-65
2022/11/17 08:12:50;;;;;;;60.88;37.13;;;12.40;99.90;;;;;;5106681;28;20023;-65
2022/11/17 08:15:16;;;;;;;63.40;38.90;;;12.20;99.90;;;;;;5108475;28;20052;-65
2022/11/17 08:17:42;;;;;;;61.78;37.35;;;12.20;99.90;;;;;;5110733;28;20634;-65
2022/11/17 08:20:11;;;;;;;64.90;37.22;;;12.30;99.90;;;;;;5113666;28;20098;-65
2022/11/17 08:22:37;;;;;;;58.97;35.60;;;12.40;99.90;;;;;;5112679;28;20028;-65
2022/11/17 08:25:03;;;;;;;58.00;31.48;;;12.40;99.90;;;;;;5094736;28;20078;-65
2022/11/17 08:27:29;;;;;;;51.10;30.70;;;12.50;99.90;;;;;;5112231;28;20019;-65
2022/11/17 08:29:55;;;;;;;68.47;39.45;;;12.50;99.90;;;;;;5109003;28;20106;-65
2022/11/17 08:32:21;;;;;;;76.15;42.42;;;12.60;99.90;;;;;;5111745;28;20024;-65
2022/11/17 08:34:47;;;;;;;83.15;45.22;;;12.70;99.90;;;;;;5112907;28;20087;-65
2022/11/17 08:37:14;;;;;;;85.40;43.95;;;12.80;99.90;;;;;;5096660;28;20031;-65
2022/11/17 08:39:40;;;;;;;71.90;40.40;;;12.80;99.90;;;;;;5110789;28;20035;-65
2022/11/17 08:42:06;;;;;;;72.22;40.33;;;12.90;99.90;;;;;;5112018;28;20020;-65
2022/11/17 08:44:32;;;;;;;68.70;39.80;;;13.00;99.90;;;;;;5093593;28;20016;-65
2022/11/17 08:46:58;;;;;;;64.47;36.75;;;13.00;99.90;;;;;;5113965;28;20031;-65
2022/11/17 08:49:25;;;;;;;53.47;28.02;;;13.10;99.90;;;;;;5110764;28;20024;-65
2022/11/17 08:51:51;;;;;;;41.50;23.67;;;13.00;99.90;;;;;;5114768;28;20027;-65
2022/11/17 08:54:17;;;;;;;33.63;19.02;;;13.10;99.90;;;;;;5115319;28;20050;-65
2022/11/17 08:56:45;;;;;;;33.55;19.23;;;13.20;99.90;;;;;;5109006;28;20039;-65
2022/11/17 08:59:12;;;;;;;42.38;20.58;;;13.20;99.90;;;;;;5075248;28;20044;-65
2022/11/17 09:01:39;;;;;;;48.45;24.58;;;13.20;99.90;;;;;;5113767;28;20065;-65
2022/11/17 09:04:05;;;;;;;43.95;25.33;;;13.10;99.90;;;;;;5115087;28;20034;-66
2022/11/17 09:06:31;;;;;;;42.92;22.45;;;13.20;99.90;;;;;;5115094;28;20019;-65
2022/11/17 09:08:57;;;;;;;56.28;21.88;;;13.20;99.90;;;;;;5115992;28;20354;-66
2022/11/17 09:11:23;;;;;;;41.10;19.90;;;13.30;99.90;;;;;;5115245;28;20534;-66
2022/11/17 09:13:48;;;;;;;46.28;21.50;;;13.30;99.90;;;;;;5115246;28;20177;-66
2022/11/17 09:16:15;;;;;;;44.78;21.13;;;13.40;99.90;;;;;;5114649;28;20059;-66
2022/11/17 09:18:42;;;;;;;51.92;18.25;;;13.60;99.90;;;;;;5114069;28;20024;-66
2022/11/17 09:21:12;;;;;;;48.65;22.75;;;13.50;99.90;;;;;;5114829;28;20127;-66
2022/11/17 09:23:38;;;;;;;;;;;13.40;99.90;;;;;;5108954;28;20557;-66
2022/11/17 09:26:07;;;;;;;49.08;22.85;;;13.70;99.90;;;;;;5111763;28;19938;-66
2022/11/17 09:28:34;;;;;;;46.45;21.92;;;13.90;99.90;;;;;;5115265;28;20023;-66
2022/11/17 09:31:08;;;;;;;43.17;20.80;;;13.80;99.90;;;;;;5093553;28;20449;-66
2022/11/17 09:33:34;;;;;;;60.15;27.55;;;13.80;99.90;;;;;;5111205;28;20096;-66
2022/11/17 09:36:00;;;;;;;50.28;24.05;;;14.00;99.90;;;;;;5103374;28;20076;-66
2022/11/17 09:38:26;;;;;;;39.10;21.40;;;14.10;99.90;;;;;;5115178;28;20019;-66
2022/11/17 09:40:54;;;;;;;43.50;22.98;;;13.90;99.90;;;;;;5114743;28;20027;-67
2022/11/17 09:43:33;;;;;;;60.67;25.27;;;14.20;99.90;;;;;;5111881;28;20362;-66
2022/11/17 09:46:12;;;;;;;38.17;21.20;;;14.50;99.90;;;;;;5114218;28;20024;-66
2022/11/17 09:48:52;;;;;;;41.70;22.85;;;14.50;99.90;;;;;;5114165;28;20036;-66
2022/11/17 09:51:20;;;;;;;42.60;22.17;;;14.70;99.90;;;;;;5113214;28;20062;-66
2022/11/17 09:54:03;;;;;;;34.88;18.60;;;14.80;99.90;;;;;;5115339;28;20028;-66
2022/11/17 09:56:29;;;;;;;29.70;15.88;;;14.80;99.90;;;;;;5114903;28;20038;-66
2022/11/17 09:59:03;;;;;;;32.95;14.40;;;15.00;99.90;;;;;;5112299;28;20028;-65
2022/11/17 10:01:30;;;;;;;43.30;19.30;;;15.00;99.90;;;;;;5114832;28;20091;-66
2022/11/17 10:03:58;;;;;;;36.60;19.08;;;15.30;99.90;;;;;;5114590;28;20110;-66
2022/11/17 10:06:27;;;;;;;40.70;19.67;;;15.70;99.90;;;;;;5114613;28;20024;-66
2022/11/17 10:08:59;;;;;;;36.17;17.92;;;15.90;99.90;;;;;;5118594;28;20035;-66
2022/11/17 10:11:32;;;;;;;31.40;10.50;;;17.00;99.90;;;;;;5100531;28;20362;-66
2022/11/17 10:14:07;;;;;;;17.77;8.48;;;17.40;97.40;;;;;;5118483;28;20090;-66
2022/11/17 10:16:35;;;;;;;26.95;9.90;;;17.60;98.00;;;;;;5118556;28;20047;-66
2022/11/17 10:19:23;;;;;;;17.90;9.73;;;18.40;95.10;;;;;;5118607;28;20435;-66
2022/11/17 10:21:58;;;;;;;15.60;8.88;;;18.90;94.70;;;;;;5119004;28;20069;-66
2022/11/17 10:24:45;;;;;;;31.80;11.10;;;19.20;94.00;;;;;;5119469;28;20031;-66
2022/11/17 10:27:18;;;;;;;15.30;8.93;;;19.30;87.40;;;;;;5119274;28;20032;-66
2022/11/17 10:30:02;;;;;;;15.20;8.18;;;19.60;89.10;;;;;;5118164;28;20393;-66
2022/11/17 10:32:31;;;;;;;25.17;7.90;;;19.80;81.00;;;;;;5115719;28;20031;-66
2022/11/17 10:35:17;;;;;;;35.00;9.80;;;20.20;76.90;;;;;;5115076;28;20500;-66
2022/11/17 10:37:55;;;;;;;20.90;7.18;;;20.50;75.60;;;;;;5116206;28;20031;-66
2022/11/17 10:40:26;;;;;;;39.20;9.30;;;20.70;77.50;;;;;;5116298;28;20024;-66
2022/11/17 10:43:13;;;;;;;12.43;7.43;;;20.90;73.00;;;;;;5112478;27;20016;-66
2022/11/17 10:45:50;;;;;;;18.60;8.18;;;20.30;67.80;;;;;;5113729;27;20031;-66
2022/11/17 10:48:37;;;;;;;16.35;6.90;;;20.30;71.20;;;;;;5115610;27;20027;-66
2022/11/17 10:51:21;;;;;;;16.63;5.95;;;20.90;70.70;;;;;;5114134;28;20123;-66
2022/11/17 10:54:04;;;;;;;20.20;8.00;;;21.70;68.80;;;;;;5098773;28;20032;-66
2022/11/17 10:56:32;;;;;;;14.30;7.65;;;21.60;67.30;;;;;;5114927;28;20023;-67
2022/11/17 10:59:16;;;;;;;12.20;6.30;;;22.30;61.00;;;;;;5099235;28;20542;-66
2022/11/17 11:01:44;;;;;;;24.55;7.85;;;22.30;58.80;;;;;;5117513;28;20036;-67
2022/11/17 11:04:40;;;;;;;16.95;7.95;;;22.60;63.10;;;;;;5117669;28;20076;-66
2022/11/17 11:07:20;;;;;;;27.08;9.43;;;22.80;60.60;;;;;;5117677;28;20022;-66
2022/11/17 11:10:33;;;;;;;17.65;7.35;;;22.70;58.60;;;;;;5117631;28;20024;-66
2022/11/17 11:13:11;;;;;;;15.95;8.38;;;23.00;62.10;;;;;;5034331;28;20148;-67
2022/11/17 11:15:38;;;;;;;19.85;8.77;;;22.70;59.20;;;;;;5034486;28;20045;-67
2022/11/17 11:18:15;;;;;;;24.83;9.88;;;23.10;61.40;;;;;;5033887;28;20085;-66
2022/11/17 11:20:47;;;;;;;13.95;6.13;;;23.30;57.20;;;;;;5034140;28;20034;-67
2022/11/17 11:23:45;;;;;;;10.48;5.43;;;23.50;56.80;;;;;;5034265;28;20036;-67
2022/11/17 11:26:44;;;;;;;11.10;5.47;;;22.90;54.50;;;;;;5030504;28;20069;-67
2022/11/17 11:29:20;;;;;;;10.48;5.53;;;22.50;55.20;;;;;;4963332;28;20039;-67
2022/11/17 11:31:56;;;;;;;17.48;6.85;;;22.30;55.90;;;;;;5034113;28;20119;-67
2022/11/17 11:34:31;;;;;;;11.88;6.18;;;22.10;55.90;;;;;;5017366;28;20535;-66
2022/11/17 11:37:08;;;;;;;8.50;5.13;;;22.40;57.40;;;;;;5033941;28;20049;-66
2022/11/17 11:40:03;;;;;;;19.60;6.28;;;22.30;54.70;;;;;;5032121;28;20041;-66
2022/11/17 11:42:41;;;;;;;9.15;4.45;;;21.80;56.90;;;;;;5028147;28;20491;-66
2022/11/17 11:45:48;;;;;;;16.40;6.55;;;22.00;57.70;;;;;;5032650;28;20034;-66
2022/11/17 11:48:40;;;;;;;11.05;4.68;;;22.00;56.00;;;;;;5115607;28;20035;-66
2022/11/17 11:51:16;;;;;;;21.60;5.63;;;22.30;57.70;;;;;;5036082;28;20497;-66
2022/11/17 11:54:11;;;;;;;13.50;4.10;;;22.40;56.40;;;;;;5050958;28;20495;-66
2022/11/17 11:56:44;;;;;;;13.85;6.50;;;22.40;57.20;;;;;;5042022;28;20050;-66
2022/11/17 11:59:36;;;;;;;10.60;4.93;;;21.80;55.00;;;;;;5069946;28;20055;-66
2022/11/17 12:02:11;;;;;;;10.43;5.22;;;21.00;58.40;;;;;;5046475;28;20546;-66
2022/11/17 12:04:53;;;;;;;13.77;5.80;;;21.40;59.30;;;;;;5051047;28;20037;-66
2022/11/17 12:07:43;;;;;;;11.57;4.97;;;22.00;58.00;;;;;;5049101;28;20088;-66
2022/11/17 12:10:49;;;;;;;20.08;7.15;;;22.30;58.10;;;;;;5050685;28;20041;-66
2022/11/17 12:13:17;;;;;;;19.08;7.43;;;22.30;55.60;;;;;;5048271;28;20046;-67
2022/11/17 12:15:43;;;;;;;12.77;6.25;;;21.90;55.90;;;;;;5049083;28;20029;-67
2022/11/17 12:18:15;;;;;;;22.77;6.25;;;21.60;55.10;;;;;;5052828;28;20033;-66
2022/11/17 12:20:41;;;;;;;22.80;5.57;;;21.30;56.90;;;;;;5050209;28;20086;-67
2022/11/17 12:23:07;;;;;;;11.85;4.50;;;21.30;58.20;;;;;;5106638;28;20044;-67
2022/11/17 12:25:35;;;;;;;8.48;3.83;;;21.50;57.90;;;;;;5116356;28;20055;-67
2022/11/17 12:28:34;;;;;;;8.35;5.18;;;21.50;59.30;;;;;;5114678;28;20024;-66
2022/11/17 12:31:10;;;;;;;12.18;4.97;;;21.30;56.00;;;;;;5115186;28;20023;-66
2022/11/17 12:33:59;;;;;;;22.38;7.03;;;21.30;57.00;;;;;;5114212;28;20055;-66
2022/11/17 12:36:31;;;;;;;13.02;5.38;;;21.00;57.20;;;;;;5060717;28;20089;-67
2022/11/17 12:38:59;;;;;;;15.43;5.60;;;20.70;58.00;;;;;;5105771;28;20036;-67
2022/11/17 12:41:47;;;;;;;28.00;8.43;;;21.00;58.80;;;;;;5097578;28;20020;-67
2022/11/17 12:44:32;;;;;;;19.20;6.63;;;20.20;60.00;;;;;;5098386;28;20028;-67
2022/11/17 12:47:19;;;;;;;15.68;6.45;;;19.90;59.80;;;;;;5104026;28;20309;-67
2022/11/17 12:50:04;;;;;;;13.32;5.70;;;19.50;60.20;;;;;;5098941;28;20032;-66
2022/11/17 12:52:48;;;;;;;16.33;6.70;;;19.30;61.50;;;;;;5102111;28;20073;-67
2022/11/17 12:55:52;;;;;;;22.33;8.00;;;19.30;62.10;;;;;;5106646;28;20027;-67
2022/11/17 12:58:39;;;;;;;19.50;8.13;;;19.50;62.00;;;;;;5103560;28;20461;-66
2022/11/17 13:01:37;;;;;;;24.08;7.32;;;19.40;63.70;;;;;;5101446;28;20401;-66
2022/11/17 13:04:08;;;;;;;23.05;7.90;;;18.90;65.40;;;;;;5106441;28;20031;-66
2022/11/17 13:06:34;;;;;;;10.95;7.10;;;18.80;66.60;;;;;;5086824;28;20102;-66
2022/11/17 13:09:04;;;;;;;12.18;5.85;;;18.40;66.90;;;;;;5103279;28;20528;-66
2022/11/17 13:11:31;;;;;;;10.20;5.53;;;18.30;68.10;;;;;;5103755;28;20024;-66
2022/11/17 13:14:08;;;;;;;14.50;6.05;;;18.20;68.00;;;;;;5100267;28;20024;-66
2022/11/17 13:16:36;;;;;;;14.48;8.23;;;18.20;67.30;;;;;;5102562;28;20059;-66
2022/11/17 13:19:25;;;;;;;19.13;7.55;;;17.90;68.20;;;;;;5100427;28;20050;-66
2022/11/17 13:21:58;;;;;;;19.38;7.28;;;18.00;71.80;;;;;;5103931;28;20087;-66
2022/11/17 13:24:32;;;;;;;14.30;6.03;;;18.10;73.90;;;;;;5105817;28;20020;-66
2022/11/17 13:27:00;;;;;;;8.52;4.78;;;18.00;70.10;;;;;;5094552;28;20031;-66
2022/11/17 13:29:27;;;;;;;15.18;5.05;;;17.80;70.40;;;;;;5094190;28;20024;-66
2022/11/17 13:32:16;;;;;;;21.83;6.82;;;17.80;72.70;;;;;;5098087;28;20420;-66
2022/11/17 13:34:47;;;;;;;24.33;12.48;;;17.90;70.50;;;;;;5103415;28;20038;-66